sensor_id;sensor_type;location;lat;lon;timestamp;P1;P2;P0
36453;PMS5003;22478;51.740;-1.314;2023-03-12T00:01:14;64;64;
36453;PMS5003;22478;51.740;-1.314;2023-03-12T00:03:44;54;50;
36453;PMS5003;22478;51.740;-1.314;2023-03-12T00:06:12;63;60;
36453;PMS5003;22478;51.740;-1.314;2023-03-12T00:08:39;57;55;
36453;PMS5003;22478;51.740;-1.314;2023-03-12T00:11:07;60;52;
36453;PMS5003;22478;51.740;-1.314;2023-03-12T00:13:36;59;58;
36453;PMS5003;22478;51.740;-1.314;2023-03-12T00:16:05;54;48;
36453;PMS5003;22478;51.740;-1.314;2023-03-12T00:18:34;49;46;
36453;PMS5003;22478;51.740;-1.314;2023-03-12T00:21:02;46;39;
36453;PMS5003;22478;51.740;-1.314;2023-03-12T00:23:30;41;34;
36453;PMS5003;22478;51.740;-1.314;2023-03-12T00:25:59;37;35;
36453;PMS5003;22478;51.740;-1.314;2023-03-12T00:28:26;40;36;
36453;PMS5003;22478;51.740;-1.314;2023-03-12T00:30:53;46;46;
36453;PMS5003;22478;51.740;-1.314;2023-03-12T00:33:21;30;25;
36453;PMS5003;22478;51.740;-1.314;2023-03-12T00:35:49;41;35;
36453;PMS5003;22478;51.740;-1.314;2023-03-12T00:38:16;22;22;
36453;PMS5003;22478;51.740;-1.314;2023-03-12T00:40:43;30;26;
36453;PMS5003;22478;51.740;-1.314;2023-03-12T00:43:11;38;32;
36453;PMS5003;22478;51.740;-1.314;2023-03-12T00:45:39;31;26;
36453;PMS5003;22478;51.740;-1.314;2023-03-12T00:48:06;38;36;
36453;PMS5003;22478;51.740;-1.314;2023-03-12T00:50:35;33;32;
36453;PMS5003;22478;51.740;-1.314;2023-03-12T00:53:02;29;26;
36453;PMS5003;22478;51.740;-1.314;2023-03-12T00:55:29;26;23;
36453;PMS5003;22478;51.740;-1.314;2023-03-12T00:57:56;33;31;
36453;PMS5003;22478;51.740;-1.314;2023-03-12T01:00:23;34;30;
36453;PMS5003;22478;51.740;-1.314;2023-03-12T01:02:51;36;29;
36453;PMS5003;22478;51.740;-1.314;2023-03-12T01:05:18;33;33;
36453;PMS5003;22478;51.740;-1.314;2023-03-12T01:07:45;35;33;
36453;PMS5003;22478;51.740;-1.314;2023-03-12T01:10:13;44;39;
36453;PMS5003;22478;51.740;-1.314;2023-03-12T01:12:45;34;31;
36453;PMS5003;22478;51.740;-1.314;2023-03-12T01:15:12;33;29;
36453;PMS5003;22478;51.740;-1.314;2023-03-12T01:17:42;43;40;
36453;PMS5003;22478;51.740;-1.314;2023-03-12T01:20:09;36;35;
36453;PMS5003;22478;51.740;-1.314;2023-03-12T01:22:38;32;30;
36453;PMS5003;22478;51.740;-1.314;2023-03-12T01:25:06;34;30;
36453;PMS5003;22478;51.740;-1.314;2023-03-12T01:27:33;35;30;
36453;PMS5003;22478;51.740;-1.314;2023-03-12T01:30:01;37;33;
36453;PMS5003;22478;51.740;-1.314;2023-03-12T01:32:30;34;31;
36453;PMS5003;22478;51.740;-1.314;2023-03-12T01:34:58;32;29;
36453;PMS5003;22478;51.740;-1.314;2023-03-12T01:37:26;33;31;
36453;PMS5003;22478;51.740;-1.314;2023-03-12T01:39:54;46;37;
36453;PMS5003;22478;51.740;-1.314;2023-03-12T01:42:21;35;28;
36453;PMS5003;22478;51.740;-1.314;2023-03-12T01:44:50;34;25;
36453;PMS5003;22478;51.740;-1.314;2023-03-12T01:47:18;34;31;
36453;PMS5003;22478;51.740;-1.314;2023-03-12T01:49:45;29;26;
36453;PMS5003;22478;51.740;-1.314;2023-03-12T01:52:16;30;30;
36453;PMS5003;22478;51.740;-1.314;2023-03-12T01:54:47;35;31;
36453;PMS5003;22478;51.740;-1.314;2023-03-12T01:57:19;33;32;
36453;PMS5003;22478;51.740;-1.314;2023-03-12T01:59:52;39;38;
36453;PMS5003;22478;51.740;-1.314;2023-03-12T02:02:22;41;32;
36453;PMS5003;22478;51.740;-1.314;2023-03-12T02:04:50;41;36;
36453;PMS5003;22478;51.740;-1.314;2023-03-12T02:07:23;46;44;
36453;PMS5003;22478;51.740;-1.314;2023-03-12T02:09:51;53;51;
36453;PMS5003;22478;51.740;-1.314;2023-03-12T02:12:18;37;35;
36453;PMS5003;22478;51.740;-1.314;2023-03-12T02:14:45;35;33;
36453;PMS5003;22478;51.740;-1.314;2023-03-12T02:17:12;36;31;
36453;PMS5003;22478;51.740;-1.314;2023-03-12T02:19:42;34;34;
36453;PMS5003;22478;51.740;-1.314;2023-03-12T02:22:15;39;32;
36453;PMS5003;22478;51.740;-1.314;2023-03-12T02:24:44;36;33;
36453;PMS5003;22478;51.740;-1.314;2023-03-12T02:27:16;35;33;
36453;PMS5003;22478;51.740;-1.314;2023-03-12T02:29:44;33;31;
36453;PMS5003;22478;51.740;-1.314;2023-03-12T02:32:15;40;33;
36453;PMS5003;22478;51.740;-1.314;2023-03-12T02:34:47;39;37;
36453;PMS5003;22478;51.740;-1.314;2023-03-12T02:37:14;51;42;
36453;PMS5003;22478;51.740;-1.314;2023-03-12T02:39:42;44;39;
36453;PMS5003;22478;51.740;-1.314;2023-03-12T02:42:12;50;48;
36453;PMS5003;22478;51.740;-1.314;2023-03-12T02:44:39;46;44;
36453;PMS5003;22478;51.740;-1.314;2023-03-12T02:47:06;39;37;
36453;PMS5003;22478;51.740;-1.314;2023-03-12T02:49:34;33;33;
36453;PMS5003;22478;51.740;-1.314;2023-03-12T02:52:02;48;47;
36453;PMS5003;22478;51.740;-1.314;2023-03-12T02:54:30;44;40;
36453;PMS5003;22478;51.740;-1.314;2023-03-12T02:56:57;42;33;
36453;PMS5003;22478;51.740;-1.314;2023-03-12T02:59:25;48;40;
36453;PMS5003;22478;51.740;-1.314;2023-03-12T03:01:53;44;39;
36453;PMS5003;22478;51.740;-1.314;2023-03-12T03:04:23;35;32;
36453;PMS5003;22478;51.740;-1.314;2023-03-12T03:06:54;42;37;
36453;PMS5003;22478;51.740;-1.314;2023-03-12T03:09:21;39;30;
36453;PMS5003;22478;51.740;-1.314;2023-03-12T03:11:50;43;35;
36453;PMS5003;22478;51.740;-1.314;2023-03-12T03:14:17;39;39;
36453;PMS5003;22478;51.740;-1.314;2023-03-12T03:16:45;44;40;
36453;PMS5003;22478;51.740;-1.314;2023-03-12T03:19:12;47;39;
36453;PMS5003;22478;51.740;-1.314;2023-03-12T03:21:40;51;44;
36453;PMS5003;22478;51.740;-1.314;2023-03-12T03:24:08;43;41;
36453;PMS5003;22478;51.740;-1.314;2023-03-12T03:26:35;37;33;
36453;PMS5003;22478;51.740;-1.314;2023-03-12T03:29:02;45;39;
36453;PMS5003;22478;51.740;-1.314;2023-03-12T03:31:30;42;39;
36453;PMS5003;22478;51.740;-1.314;2023-03-12T03:33:57;41;39;
36453;PMS5003;22478;51.740;-1.314;2023-03-12T03:36:24;53;44;
36453;PMS5003;22478;51.740;-1.314;2023-03-12T03:38:52;32;29;
36453;PMS5003;22478;51.740;-1.314;2023-03-12T03:41:20;47;40;
36453;PMS5003;22478;51.740;-1.314;2023-03-12T03:43:47;44;37;
36453;PMS5003;22478;51.740;-1.314;2023-03-12T03:46:15;44;37;
36453;PMS5003;22478;51.740;-1.314;2023-03-12T03:48:42;50;45;
36453;PMS5003;22478;51.740;-1.314;2023-03-12T03:51:10;70;60;
36453;PMS5003;22478;51.740;-1.314;2023-03-12T03:53:38;57;52;
36453;PMS5003;22478;51.740;-1.314;2023-03-12T03:56:05;66;60;
36453;PMS5003;22478;51.740;-1.314;2023-03-12T03:58:33;66;61;
36453;PMS5003;22478;51.740;-1.314;2023-03-12T04:01:00;55;53;
36453;PMS5003;22478;51.740;-1.314;2023-03-12T04:03:27;57;53;
36453;PMS5003;22478;51.740;-1.314;2023-03-12T04:05:56;63;56;
36453;PMS5003;22478;51.740;-1.314;2023-03-12T04:08:24;63;56;
36453;PMS5003;22478;51.740;-1.314;2023-03-12T04:10:52;57;53;
36453;PMS5003;22478;51.740;-1.314;2023-03-12T04:13:20;71;65;
36453;PMS5003;22478;51.740;-1.314;2023-03-12T04:15:49;65;59;
36453;PMS5003;22478;51.740;-1.314;2023-03-12T04:18:18;64;56;
36453;PMS5003;22478;51.740;-1.314;2023-03-12T04:20:46;66;57;
36453;PMS5003;22478;51.740;-1.314;2023-03-12T04:23:13;68;67;
36453;PMS5003;22478;51.740;-1.314;2023-03-12T04:25:40;82;73;
36453;PMS5003;22478;51.740;-1.314;2023-03-12T04:28:08;79;70;
36453;PMS5003;22478;51.740;-1.314;2023-03-12T04:30:36;60;55;
36453;PMS5003;22478;51.740;-1.314;2023-03-12T04:33:02;59;53;
36453;PMS5003;22478;51.740;-1.314;2023-03-12T04:35:30;61;48;
36453;PMS5003;22478;51.740;-1.314;2023-03-12T04:37:59;62;54;
36453;PMS5003;22478;51.740;-1.314;2023-03-12T04:40:26;52;48;
36453;PMS5003;22478;51.740;-1.314;2023-03-12T04:42:54;65;57;
36453;PMS5003;22478;51.740;-1.314;2023-03-12T04:45:21;57;48;
36453;PMS5003;22478;51.740;-1.314;2023-03-12T04:47:48;61;57;
36453;PMS5003;22478;51.740;-1.314;2023-03-12T04:50:15;53;50;
36453;PMS5003;22478;51.740;-1.314;2023-03-12T04:52:43;56;45;
36453;PMS5003;22478;51.740;-1.314;2023-03-12T04:55:11;51;46;
36453;PMS5003;22478;51.740;-1.314;2023-03-12T04:57:38;55;46;
36453;PMS5003;22478;51.740;-1.314;2023-03-12T05:00:05;48;45;
36453;PMS5003;22478;51.740;-1.314;2023-03-12T05:02:33;59;56;
36453;PMS5003;22478;51.740;-1.314;2023-03-12T05:05:02;53;45;
36453;PMS5003;22478;51.740;-1.314;2023-03-12T05:07:29;55;45;
36453;PMS5003;22478;51.740;-1.314;2023-03-12T05:09:56;59;51;
36453;PMS5003;22478;51.740;-1.314;2023-03-12T05:12:23;49;44;
36453;PMS5003;22478;51.740;-1.314;2023-03-12T05:14:51;44;38;
36453;PMS5003;22478;51.740;-1.314;2023-03-12T05:17:18;52;41;
36453;PMS5003;22478;51.740;-1.314;2023-03-12T05:19:46;57;53;
36453;PMS5003;22478;51.740;-1.314;2023-03-12T05:22:13;46;42;
36453;PMS5003;22478;51.740;-1.314;2023-03-12T05:24:41;45;42;
36453;PMS5003;22478;51.740;-1.314;2023-03-12T05:27:08;43;35;
36453;PMS5003;22478;51.740;-1.314;2023-03-12T05:29:35;45;40;
36453;PMS5003;22478;51.740;-1.314;2023-03-12T05:32:03;36;32;
36453;PMS5003;22478;51.740;-1.314;2023-03-12T05:34:31;40;37;
36453;PMS5003;22478;51.740;-1.314;2023-03-12T05:36:59;41;32;
36453;PMS5003;22478;51.740;-1.314;2023-03-12T05:39:26;38;32;
36453;PMS5003;22478;51.740;-1.314;2023-03-12T05:41:53;42;36;
36453;PMS5003;22478;51.740;-1.314;2023-03-12T05:44:21;55;44;
36453;PMS5003;22478;51.740;-1.314;2023-03-12T05:46:49;34;29;
36453;PMS5003;22478;51.740;-1.314;2023-03-12T05:49:17;30;25;
36453;PMS5003;22478;51.740;-1.314;2023-03-12T05:51:45;29;23;
36453;PMS5003;22478;51.740;-1.314;2023-03-12T05:54:12;34;27;
36453;PMS5003;22478;51.740;-1.314;2023-03-12T05:56:41;37;36;
36453;PMS5003;22478;51.740;-1.314;2023-03-12T05:59:09;26;20;
36453;PMS5003;22478;51.740;-1.314;2023-03-12T06:01:36;24;22;
36453;PMS5003;22478;51.740;-1.314;2023-03-12T06:04:03;23;23;
36453;PMS5003;22478;51.740;-1.314;2023-03-12T06:06:31;21;19;
36453;PMS5003;22478;51.740;-1.314;2023-03-12T06:09:00;17;16;
36453;PMS5003;22478;51.740;-1.314;2023-03-12T06:11:28;33;25;
36453;PMS5003;22478;51.740;-1.314;2023-03-12T06:13:56;23;18;
36453;PMS5003;22478;51.740;-1.314;2023-03-12T06:16:24;21;16;
36453;PMS5003;22478;51.740;-1.314;2023-03-12T06:18:53;27;22;
36453;PMS5003;22478;51.740;-1.314;2023-03-12T06:21:23;23;19;
36453;PMS5003;22478;51.740;-1.314;2023-03-12T06:23:52;20;17;
36453;PMS5003;22478;51.740;-1.314;2023-03-12T06:26:20;36;30;
36453;PMS5003;22478;51.740;-1.314;2023-03-12T06:28:49;34;25;
36453;PMS5003;22478;51.740;-1.314;2023-03-12T06:31:17;32;23;
36453;PMS5003;22478;51.740;-1.314;2023-03-12T06:33:46;32;24;
36453;PMS5003;22478;51.740;-1.314;2023-03-12T06:36:14;29;25;
36453;PMS5003;22478;51.740;-1.314;2023-03-12T06:38:41;30;24;
36453;PMS5003;22478;51.740;-1.314;2023-03-12T06:41:09;34;33;
36453;PMS5003;22478;51.740;-1.314;2023-03-12T06:43:39;29;20;
36453;PMS5003;22478;51.740;-1.314;2023-03-12T06:46:08;34;32;
36453;PMS5003;22478;51.740;-1.314;2023-03-12T06:48:38;28;26;
36453;PMS5003;22478;51.740;-1.314;2023-03-12T06:51:05;26;20;
36453;PMS5003;22478;51.740;-1.314;2023-03-12T06:53:34;27;22;
36453;PMS5003;22478;51.740;-1.314;2023-03-12T06:56:02;33;25;
36453;PMS5003;22478;51.740;-1.314;2023-03-12T06:58:30;27;21;
36453;PMS5003;22478;51.740;-1.314;2023-03-12T07:00:58;23;23;
36453;PMS5003;22478;51.740;-1.314;2023-03-12T07:03:26;26;18;
36453;PMS5003;22478;51.740;-1.314;2023-03-12T07:05:54;24;19;
36453;PMS5003;22478;51.740;-1.314;2023-03-12T07:08:23;25;20;
36453;PMS5003;22478;51.740;-1.314;2023-03-12T07:10:52;30;23;
36453;PMS5003;22478;51.740;-1.314;2023-03-12T07:13:19;25;22;
36453;PMS5003;22478;51.740;-1.314;2023-03-12T07:15:46;27;24;
36453;PMS5003;22478;51.740;-1.314;2023-03-12T07:18:13;20;17;
36453;PMS5003;22478;51.740;-1.314;2023-03-12T07:20:41;21;15;
36453;PMS5003;22478;51.740;-1.314;2023-03-12T07:23:10;23;21;
36453;PMS5003;22478;51.740;-1.314;2023-03-12T07:25:37;26;24;
36453;PMS5003;22478;51.740;-1.314;2023-03-12T07:28:07;30;26;
36453;PMS5003;22478;51.740;-1.314;2023-03-12T07:30:34;33;27;
36453;PMS5003;22478;51.740;-1.314;2023-03-12T07:33:02;32;28;
36453;PMS5003;22478;51.740;-1.314;2023-03-12T07:35:30;24;24;
36453;PMS5003;22478;51.740;-1.314;2023-03-12T07:37:58;32;24;
36453;PMS5003;22478;51.740;-1.314;2023-03-12T07:40:26;31;28;
36453;PMS5003;22478;51.740;-1.314;2023-03-12T07:42:54;18;18;
36453;PMS5003;22478;51.740;-1.314;2023-03-12T07:45:22;30;26;
36453;PMS5003;22478;51.740;-1.314;2023-03-12T07:47:49;19;19;
36453;PMS5003;22478;51.740;-1.314;2023-03-12T07:50:17;22;16;
36453;PMS5003;22478;51.740;-1.314;2023-03-12T07:52:44;33;26;
36453;PMS5003;22478;51.740;-1.314;2023-03-12T07:55:12;22;19;
36453;PMS5003;22478;51.740;-1.314;2023-03-12T07:57:39;21;19;
36453;PMS5003;22478;51.740;-1.314;2023-03-12T08:00:07;26;23;
36453;PMS5003;22478;51.740;-1.314;2023-03-12T08:02:35;23;19;
36453;PMS5003;22478;51.740;-1.314;2023-03-12T08:05:02;21;15;
36453;PMS5003;22478;51.740;-1.314;2023-03-12T08:07:31;25;20;
36453;PMS5003;22478;51.740;-1.314;2023-03-12T08:09:59;26;23;
36453;PMS5003;22478;51.740;-1.314;2023-03-12T08:12:27;16;15;
36453;PMS5003;22478;51.740;-1.314;2023-03-12T08:14:54;23;18;
36453;PMS5003;22478;51.740;-1.314;2023-03-12T08:17:21;20;15;
36453;PMS5003;22478;51.740;-1.314;2023-03-12T08:19:48;17;16;
36453;PMS5003;22478;51.740;-1.314;2023-03-12T08:22:16;20;18;
36453;PMS5003;22478;51.740;-1.314;2023-03-12T08:24:43;14;12;
36453;PMS5003;22478;51.740;-1.314;2023-03-12T08:27:11;17;12;
36453;PMS5003;22478;51.740;-1.314;2023-03-12T08:29:40;23;20;
36453;PMS5003;22478;51.740;-1.314;2023-03-12T08:32:08;30;25;
36453;PMS5003;22478;51.740;-1.314;2023-03-12T08:34:35;23;22;
36453;PMS5003;22478;51.740;-1.314;2023-03-12T08:37:03;23;19;
36453;PMS5003;22478;51.740;-1.314;2023-03-12T08:39:31;26;21;
36453;PMS5003;22478;51.740;-1.314;2023-03-12T08:41:58;26;18;
36453;PMS5003;22478;51.740;-1.314;2023-03-12T08:44:26;22;18;
36453;PMS5003;22478;51.740;-1.314;2023-03-12T08:46:53;16;16;
36453;PMS5003;22478;51.740;-1.314;2023-03-12T08:49:21;22;19;
36453;PMS5003;22478;51.740;-1.314;2023-03-12T08:51:48;21;18;
36453;PMS5003;22478;51.740;-1.314;2023-03-12T08:54:16;18;15;
36453;PMS5003;22478;51.740;-1.314;2023-03-12T08:56:44;22;17;
36453;PMS5003;22478;51.740;-1.314;2023-03-12T08:59:15;25;20;
36453;PMS5003;22478;51.740;-1.314;2023-03-12T09:01:43;23;21;
36453;PMS5003;22478;51.740;-1.314;2023-03-12T09:04:10;31;23;
36453;PMS5003;22478;51.740;-1.314;2023-03-12T09:06:37;18;16;
36453;PMS5003;22478;51.740;-1.314;2023-03-12T09:09:05;25;22;
36453;PMS5003;22478;51.740;-1.314;2023-03-12T09:11:33;28;24;
36453;PMS5003;22478;51.740;-1.314;2023-03-12T09:14:01;18;16;
36453;PMS5003;22478;51.740;-1.314;2023-03-12T09:16:29;23;18;
36453;PMS5003;22478;51.740;-1.314;2023-03-12T09:18:56;29;21;
36453;PMS5003;22478;51.740;-1.314;2023-03-12T09:21:24;20;18;
36453;PMS5003;22478;51.740;-1.314;2023-03-12T09:23:51;25;20;
36453;PMS5003;22478;51.740;-1.314;2023-03-12T09:26:19;29;23;
36453;PMS5003;22478;51.740;-1.314;2023-03-12T09:28:46;19;14;
36453;PMS5003;22478;51.740;-1.314;2023-03-12T09:31:13;20;15;
36453;PMS5003;22478;51.740;-1.314;2023-03-12T09:33:40;19;17;
36453;PMS5003;22478;51.740;-1.314;2023-03-12T09:36:07;13;11;
36453;PMS5003;22478;51.740;-1.314;2023-03-12T09:38:35;17;12;
36453;PMS5003;22478;51.740;-1.314;2023-03-12T09:41:03;19;19;
36453;PMS5003;22478;51.740;-1.314;2023-03-12T09:43:33;18;15;
36453;PMS5003;22478;51.740;-1.314;2023-03-12T09:46:07;22;19;
36453;PMS5003;22478;51.740;-1.314;2023-03-12T09:48:39;15;11;
36453;PMS5003;22478;51.740;-1.314;2023-03-12T09:51:07;20;12;
36453;PMS5003;22478;51.740;-1.314;2023-03-12T09:53:43;18;11;
36453;PMS5003;22478;51.740;-1.314;2023-03-12T09:56:14;14;12;
36453;PMS5003;22478;51.740;-1.314;2023-03-12T09:58:44;10;10;
36453;PMS5003;22478;51.740;-1.314;2023-03-12T10:01:18;15;14;
36453;PMS5003;22478;51.740;-1.314;2023-03-12T10:03:59;20;17;
36453;PMS5003;22478;51.740;-1.314;2023-03-12T10:06:34;35;27;
36453;PMS5003;22478;51.740;-1.314;2023-03-12T10:09:09;27;24;
36453;PMS5003;22478;51.740;-1.314;2023-03-12T10:11:52;22;19;
36453;PMS5003;22478;51.740;-1.314;2023-03-12T10:14:27;16;16;
36453;PMS5003;22478;51.740;-1.314;2023-03-12T10:17:09;15;10;
36453;PMS5003;22478;51.740;-1.314;2023-03-12T10:19:50;13;11;
36453;PMS5003;22478;51.740;-1.314;2023-03-12T10:22:29;19;12;
36453;PMS5003;22478;51.740;-1.314;2023-03-12T10:25:11;20;17;
36453;PMS5003;22478;51.740;-1.314;2023-03-12T10:27:47;14;12;
36453;PMS5003;22478;51.740;-1.314;2023-03-12T10:30:16;11;9;
36453;PMS5003;22478;51.740;-1.314;2023-03-12T10:32:47;22;15;
36453;PMS5003;22478;51.740;-1.314;2023-03-12T10:35:17;14;11;
36453;PMS5003;22478;51.740;-1.314;2023-03-12T10:37:46;16;12;
36453;PMS5003;22478;51.740;-1.314;2023-03-12T10:40:17;13;13;
36453;PMS5003;22478;51.740;-1.314;2023-03-12T10:42:47;19;13;
36453;PMS5003;22478;51.740;-1.314;2023-03-12T10:45:18;10;10;
36453;PMS5003;22478;51.740;-1.314;2023-03-12T10:47:52;14;10;
36453;PMS5003;22478;51.740;-1.314;2023-03-12T10:50:25;12;10;
36453;PMS5003;22478;51.740;-1.314;2023-03-12T10:53:10;10;9;
36453;PMS5003;22478;51.740;-1.314;2023-03-12T10:55:40;18;14;
36453;PMS5003;22478;51.740;-1.314;2023-03-12T10:58:09;15;11;
36453;PMS5003;22478;51.740;-1.314;2023-03-12T11:00:53;16;13;
36453;PMS5003;22478;51.740;-1.314;2023-03-12T11:03:22;15;11;
36453;PMS5003;22478;51.740;-1.314;2023-03-12T11:05:51;16;13;
36453;PMS5003;22478;51.740;-1.314;2023-03-12T11:08:21;19;14;
36453;PMS5003;22478;51.740;-1.314;2023-03-12T11:10:50;16;14;
36453;PMS5003;22478;51.740;-1.314;2023-03-12T11:13:21;11;9;
36453;PMS5003;22478;51.740;-1.314;2023-03-12T11:15:51;16;12;
36453;PMS5003;22478;51.740;-1.314;2023-03-12T11:18:22;15;11;
36453;PMS5003;22478;51.740;-1.314;2023-03-12T11:20:52;15;9;
36453;PMS5003;22478;51.740;-1.314;2023-03-12T11:23:20;9;9;
36453;PMS5003;22478;51.740;-1.314;2023-03-12T11:25:51;20;11;
36453;PMS5003;22478;51.740;-1.314;2023-03-12T11:28:22;11;9;
36453;PMS5003;22478;51.740;-1.314;2023-03-12T11:30:53;13;11;
36453;PMS5003;22478;51.740;-1.314;2023-03-12T11:33:24;13;10;
36453;PMS5003;22478;51.740;-1.314;2023-03-12T11:35:56;15;14;
36453;PMS5003;22478;51.740;-1.314;2023-03-12T11:38:37;13;8;
36453;PMS5003;22478;51.740;-1.314;2023-03-12T11:41:11;12;11;
36453;PMS5003;22478;51.740;-1.314;2023-03-12T11:43:52;14;9;
36453;PMS5003;22478;51.740;-1.314;2023-03-12T11:46:36;7;7;
36453;PMS5003;22478;51.740;-1.314;2023-03-12T11:49:17;32;31;
36453;PMS5003;22478;51.740;-1.314;2023-03-12T11:51:54;46;44;
36453;PMS5003;22478;51.740;-1.314;2023-03-12T11:54:31;23;21;
36453;PMS5003;22478;51.740;-1.314;2023-03-12T11:58:19;50;46;
36453;PMS5003;22478;51.740;-1.314;2023-03-12T12:00:56;34;27;
36453;PMS5003;22478;51.740;-1.314;2023-03-12T12:03:40;39;39;
36453;PMS5003;22478;51.740;-1.314;2023-03-12T12:06:19;27;24;
36453;PMS5003;22478;51.740;-1.314;2023-03-12T12:08:58;21;19;
36453;PMS5003;22478;51.740;-1.314;2023-03-12T12:11:36;24;19;
36453;PMS5003;22478;51.740;-1.314;2023-03-12T12:14:13;18;18;
36453;PMS5003;22478;51.740;-1.314;2023-03-12T12:16:50;21;18;
36453;PMS5003;22478;51.740;-1.314;2023-03-12T12:19:29;16;16;
36453;PMS5003;22478;51.740;-1.314;2023-03-12T12:22:09;19;19;
36453;PMS5003;22478;51.740;-1.314;2023-03-12T12:24:53;24;20;
36453;PMS5003;22478;51.740;-1.314;2023-03-12T12:27:41;27;25;
36453;PMS5003;22478;51.740;-1.314;2023-03-12T12:30:17;28;24;
36453;PMS5003;22478;51.740;-1.314;2023-03-12T12:32:58;22;20;
36453;PMS5003;22478;51.740;-1.314;2023-03-12T12:35:34;49;47;
36453;PMS5003;22478;51.740;-1.314;2023-03-12T12:38:05;51;51;
36453;PMS5003;22478;51.740;-1.314;2023-03-12T12:40:39;34;33;
36453;PMS5003;22478;51.740;-1.314;2023-03-12T12:43:13;35;32;
36453;PMS5003;22478;51.740;-1.314;2023-03-12T12:45:50;35;33;
36453;PMS5003;22478;51.740;-1.314;2023-03-12T12:48:20;34;33;
36453;PMS5003;22478;51.740;-1.314;2023-03-12T12:50:51;37;31;
36453;PMS5003;22478;51.740;-1.314;2023-03-12T12:53:22;24;24;
36453;PMS5003;22478;51.740;-1.314;2023-03-12T12:55:54;30;30;
36453;PMS5003;22478;51.740;-1.314;2023-03-12T12:58:41;31;28;
36453;PMS5003;22478;51.740;-1.314;2023-03-12T13:01:26;27;20;
36453;PMS5003;22478;51.740;-1.314;2023-03-12T13:03:56;32;26;
36453;PMS5003;22478;51.740;-1.314;2023-03-12T13:06:27;29;27;
36453;PMS5003;22478;51.740;-1.314;2023-03-12T13:09:20;27;25;
36453;PMS5003;22478;51.740;-1.314;2023-03-12T13:11:48;26;23;
36453;PMS5003;22478;51.740;-1.314;2023-03-12T13:14:48;21;20;
36453;PMS5003;22478;51.740;-1.314;2023-03-12T13:17:19;32;29;
36453;PMS5003;22478;51.740;-1.314;2023-03-12T13:19:48;19;19;
36453;PMS5003;22478;51.740;-1.314;2023-03-12T13:22:21;14;12;
36453;PMS5003;22478;51.740;-1.314;2023-03-12T13:24:57;11;11;
36453;PMS5003;22478;51.740;-1.314;2023-03-12T13:27:36;19;17;
36453;PMS5003;22478;51.740;-1.314;2023-03-12T13:33:35;19;19;
36453;PMS5003;22478;51.740;-1.314;2023-03-12T13:36:10;20;16;
36453;PMS5003;22478;51.740;-1.314;2023-03-12T13:38:51;16;16;
36453;PMS5003;22478;51.740;-1.314;2023-03-12T13:41:32;10;9;
36453;PMS5003;22478;51.740;-1.314;2023-03-12T13:44:22;12;10;
36453;PMS5003;22478;51.740;-1.314;2023-03-12T13:46:56;28;26;
36453;PMS5003;22478;51.740;-1.314;2023-03-12T13:49:25;13;11;
36453;PMS5003;22478;51.740;-1.314;2023-03-12T13:52:00;16;14;
36453;PMS5003;22478;51.740;-1.314;2023-03-12T13:54:39;31;26;
36453;PMS5003;22478;51.740;-1.314;2023-03-12T13:57:10;24;22;
36453;PMS5003;22478;51.740;-1.314;2023-03-12T13:59:43;12;11;
36453;PMS5003;22478;51.740;-1.314;2023-03-12T14:02:14;10;10;
36453;PMS5003;22478;51.740;-1.314;2023-03-12T14:04:49;9;6;
36453;PMS5003;22478;51.740;-1.314;2023-03-12T14:07:25;18;16;
36453;PMS5003;22478;51.740;-1.314;2023-03-12T14:10:11;12;12;
36453;PMS5003;22478;51.740;-1.314;2023-03-12T14:12:51;19;15;
36453;PMS5003;22478;51.740;-1.314;2023-03-12T14:15:31;21;18;
36453;PMS5003;22478;51.740;-1.314;2023-03-12T14:18:10;24;24;
36453;PMS5003;22478;51.740;-1.314;2023-03-12T14:20:45;28;20;
36453;PMS5003;22478;51.740;-1.314;2023-03-12T14:23:19;24;24;
36453;PMS5003;22478;51.740;-1.314;2023-03-12T14:25:48;33;30;
36453;PMS5003;22478;51.740;-1.314;2023-03-12T14:28:22;19;18;
36453;PMS5003;22478;51.740;-1.314;2023-03-12T14:30:54;31;29;
36453;PMS5003;22478;51.740;-1.314;2023-03-12T14:33:24;32;27;
36453;PMS5003;22478;51.740;-1.314;2023-03-12T14:35:54;28;26;
36453;PMS5003;22478;51.740;-1.314;2023-03-12T14:38:29;27;24;
36453;PMS5003;22478;51.740;-1.314;2023-03-12T14:40:59;18;18;
36453;PMS5003;22478;51.740;-1.314;2023-03-12T14:43:31;18;17;
36453;PMS5003;22478;51.740;-1.314;2023-03-12T14:46:01;16;15;
36453;PMS5003;22478;51.740;-1.314;2023-03-12T14:48:30;14;13;
36453;PMS5003;22478;51.740;-1.314;2023-03-12T14:50:59;15;15;
36453;PMS5003;22478;51.740;-1.314;2023-03-12T14:53:29;21;20;
36453;PMS5003;22478;51.740;-1.314;2023-03-12T14:55:59;27;21;
36453;PMS5003;22478;51.740;-1.314;2023-03-12T14:58:29;20;19;
36453;PMS5003;22478;51.740;-1.314;2023-03-12T15:00:57;29;26;
36453;PMS5003;22478;51.740;-1.314;2023-03-12T15:03:26;27;24;
36453;PMS5003;22478;51.740;-1.314;2023-03-12T15:05:54;27;27;
36453;PMS5003;22478;51.740;-1.314;2023-03-12T15:08:23;11;11;
36453;PMS5003;22478;51.740;-1.314;2023-03-12T15:10:51;18;17;
36453;PMS5003;22478;51.740;-1.314;2023-03-12T15:13:20;16;14;
36453;PMS5003;22478;51.740;-1.314;2023-03-12T15:15:51;14;14;
36453;PMS5003;22478;51.740;-1.314;2023-03-12T15:18:21;16;16;
36453;PMS5003;22478;51.740;-1.314;2023-03-12T15:20:51;22;19;
36453;PMS5003;22478;51.740;-1.314;2023-03-12T15:23:20;27;24;
36453;PMS5003;22478;51.740;-1.314;2023-03-12T15:26:07;30;25;
36453;PMS5003;22478;51.740;-1.314;2023-03-12T15:28:36;18;15;
36453;PMS5003;22478;51.740;-1.314;2023-03-12T15:31:07;18;18;
36453;PMS5003;22478;51.740;-1.314;2023-03-12T15:33:37;22;19;
36453;PMS5003;22478;51.740;-1.314;2023-03-12T15:36:14;31;29;
36453;PMS5003;22478;51.740;-1.314;2023-03-12T15:38:50;27;27;
36453;PMS5003;22478;51.740;-1.314;2023-03-12T15:41:21;23;23;
36453;PMS5003;22478;51.740;-1.314;2023-03-12T15:43:51;28;26;
36453;PMS5003;22478;51.740;-1.314;2023-03-12T15:46:22;23;23;
36453;PMS5003;22478;51.740;-1.314;2023-03-12T15:48:51;23;23;
36453;PMS5003;22478;51.740;-1.314;2023-03-12T15:51:29;31;31;
36453;PMS5003;22478;51.740;-1.314;2023-03-12T15:54:00;11;11;
36453;PMS5003;22478;51.740;-1.314;2023-03-12T15:56:31;13;13;
36453;PMS5003;22478;51.740;-1.314;2023-03-12T15:59:03;9;9;
36453;PMS5003;22478;51.740;-1.314;2023-03-12T16:01:45;12;12;
36453;PMS5003;22478;51.740;-1.314;2023-03-12T16:04:14;11;10;
36453;PMS5003;22478;51.740;-1.314;2023-03-12T16:06:42;7;5;
36453;PMS5003;22478;51.740;-1.314;2023-03-12T16:09:11;10;10;
36453;PMS5003;22478;51.740;-1.314;2023-03-12T16:11:43;7;7;
36453;PMS5003;22478;51.740;-1.314;2023-03-12T16:14:13;8;8;
36453;PMS5003;22478;51.740;-1.314;2023-03-12T16:16:44;7;7;
36453;PMS5003;22478;51.740;-1.314;2023-03-12T16:19:12;8;8;
36453;PMS5003;22478;51.740;-1.314;2023-03-12T16:21:40;10;10;
36453;PMS5003;22478;51.740;-1.314;2023-03-12T16:24:08;7;7;
36453;PMS5003;22478;51.740;-1.314;2023-03-12T16:26:37;13;13;